Time;durP1;ratioP1;P1;durP2;ratioP2;P2;SDS_P1;SDS_P2;PMS_P1;PMS_P2;Temp;Humidity;BMP_temperature;BMP_pressure;BME280_temperature;BME280_humidity;BME280_pressure;Samples;Min_cycle;Max_cycle;Signal;HPM_P1;HPM_P2
2023/05/14 00:01:22;;;;;;;10.20;6.30;;;;;;;;;;4996933;28;20018;-79
2023/05/14 00:03:48;;;;;;;12.98;7.32;;;;;;;;;;5034326;28;20034;-79
2023/05/14 00:06:19;;;;;;;10.77;6.25;;;;;;;;;;5021072;28;20098;-80
2023/05/14 00:08:49;;;;;;;13.00;7.30;;;8.10;99.90;;;;;;5037999;28;20025;-81
2023/05/14 00:11:57;;;;;;;10.43;6.55;;;8.30;99.90;;;;;;5021237;28;20026;-81
2023/05/14 00:14:52;;;;;;;13.18;7.10;;;8.30;99.90;;;;;;5020421;28;20037;-81
2023/05/14 00:17:45;;;;;;;12.07;6.55;;;8.30;99.90;;;;;;5020528;28;20077;-82
2023/05/14 00:20:34;;;;;;;10.52;5.82;;;8.30;99.90;;;;;;5020609;28;20028;-81
2023/05/14 00:23:00;;;;;;;13.43;7.50;;;;;;;;;;5020623;28;20100;-83
2023/05/14 00:25:59;;;;;;;9.02;6.45;;;8.40;99.90;;;;;;5037852;28;20020;-81
2023/05/14 00:28:25;;;;;;;;;;;8.40;99.90;;;;;;5019766;28;20042;-81
2023/05/14 00:30:51;;;;;;;12.55;6.43;;;8.40;99.90;;;;;;5051282;28;19911;-80
2023/05/14 00:34:20;;;;;;;12.43;6.50;;;8.50;99.90;;;;;;5056939;28;20014;-82
2023/05/14 00:37:15;;;;;;;11.60;5.50;;;8.60;99.90;;;;;;5045674;28;20044;-80
2023/05/14 00:40:02;;;;;;;11.38;5.78;;;8.60;99.90;;;;;;5048841;28;20029;-80
2023/05/14 00:42:28;;;;;;;8.85;6.28;;;8.60;99.90;;;;;;5054418;28;20093;-80
2023/05/14 00:44:54;;;;;;;8.73;5.88;;;;;;;;;;5057182;28;20032;-82
2023/05/14 00:47:20;;;;;;;10.93;6.13;;;8.60;99.90;;;;;;5057220;28;20025;-82
2023/05/14 00:49:45;;;;;;;10.75;6.30;;;8.70;99.90;;;;;;5061333;28;20024;-81
2023/05/14 00:52:11;;;;;;;9.00;6.03;;;8.80;99.90;;;;;;5060932;28;20013;-83
2023/05/14 00:55:45;;;;;;;8.32;5.22;;;8.80;99.90;;;;;;5055809;28;20018;-81
2023/05/14 00:58:12;;;;;;;7.50;5.47;;;8.80;99.90;;;;;;5047864;28;20033;-80
2023/05/14 01:01:23;;;;;;;8.90;5.72;;;8.80;99.90;;;;;;5060691;28;20036;-80
2023/05/14 01:04:15;;;;;;;10.80;6.35;;;8.80;99.90;;;;;;5025587;28;20663;-79
2023/05/14 01:08:01;;;;;;;9.32;6.15;;;8.90;99.90;;;;;;4962605;28;20071;-81
2023/05/14 01:11:34;;;;;;;8.65;5.75;;;8.90;99.90;;;;;;4871100;29;20014;-81
2023/05/14 01:14:50;;;;;;;8.05;5.75;;;9.00;99.90;;;;;;4924253;29;20056;-82
2023/05/14 01:18:18;;;;;;;10.27;6.45;;;9.00;99.90;;;;;;4915225;29;20021;-80
2023/05/14 01:22:11;;;;;;;6.35;4.35;;;9.00;99.90;;;;;;5061321;28;20012;-80
2023/05/14 01:25:12;;;;;;;8.02;5.32;;;9.00;99.90;;;;;;5049961;28;20042;-81
2023/05/14 01:31:46;;;;;;;7.20;4.35;;;9.10;99.90;;;;;;5032914;28;20053;-79
2023/05/14 01:35:15;;;;;;;10.80;6.18;;;9.10;99.90;;;;;;5037354;28;20034;-81
2023/05/14 01:41:24;;;;;;;7.68;4.93;;;8.90;99.90;;;;;;5000776;28;20022;-82
2023/05/14 01:43:50;;;;;;;8.43;6.05;;;;;;;;;;4983984;28;20037;-81
2023/05/14 01:46:57;;;;;;;10.70;5.45;;;8.80;99.90;;;;;;4984488;28;20022;-83
2023/05/14 01:49:54;;;;;;;8.10;5.55;;;8.60;99.90;;;;;;4981391;28;20030;-80
2023/05/14 01:52:43;;;;;;;7.43;5.43;;;8.60;99.90;;;;;;4983362;28;20027;-81
2023/05/14 01:55:25;;;;;;;8.27;5.60;;;;;;;;;;4997931;28;20047;-80
2023/05/14 01:58:32;;;;;;;10.10;6.25;;;8.60;99.90;;;;;;4984166;28;20046;-80
2023/05/14 02:01:37;;;;;;;8.07;4.75;;;8.50;99.90;;;;;;5005445;28;20046;-81
2023/05/14 02:04:38;;;;;;;10.05;5.13;;;8.50;99.90;;;;;;5002474;28;20038;-81
2023/05/14 02:07:55;;;;;;;10.50;6.72;;;8.40;99.90;;;;;;5019713;28;20054;-82
2023/05/14 02:10:21;;;;;;;8.02;5.50;;;;;;;;;;5004284;28;20042;-80
2023/05/14 02:12:47;;;;;;;6.97;5.15;;;;;;;;;;5058832;28;20027;-81
2023/05/14 02:15:56;;;;;;;7.57;5.75;;;8.40;99.90;;;;;;5057995;28;20017;-81
2023/05/14 02:18:42;;;;;;;7.68;5.47;;;;;;;;;;5058844;28;20024;-78
2023/05/14 02:21:15;;;;;;;11.18;6.05;;;8.50;99.90;;;;;;5051299;28;20017;-81
2023/05/14 02:23:41;;;;;;;10.55;6.05;;;8.60;99.90;;;;;;5058563;28;20028;-79
2023/05/14 02:26:08;;;;;;;8.60;5.90;;;8.50;99.90;;;;;;5058081;28;20017;-81
2023/05/14 02:28:56;;;;;;;9.52;5.32;;;8.50;99.90;;;;;;5058697;28;20033;-81
2023/05/14 02:31:45;;;;;;;9.27;5.63;;;8.50;99.90;;;;;;5058696;28;20060;-80
2023/05/14 02:34:33;;;;;;;10.13;6.32;;;8.50;99.90;;;;;;5040970;28;20104;-82
2023/05/14 02:37:02;;;;;;;9.15;6.32;;;;;;;;;;5057126;28;20029;-82
2023/05/14 02:39:28;;;;;;;7.10;5.10;;;8.40;99.90;;;;;;5040909;28;20097;-80
2023/05/14 02:41:54;;;;;;;10.25;6.47;;;8.40;99.90;;;;;;5041102;28;20049;-80
2023/05/14 02:44:45;;;;;;;8.30;5.60;;;8.40;99.90;;;;;;5051924;28;20194;-80
2023/05/14 02:47:11;;;;;;;8.50;6.15;;;8.40;99.90;;;;;;5042260;28;20010;-81
2023/05/14 02:49:37;;;;;;;15.15;7.18;;;8.40;99.90;;;;;;5042435;28;20013;-80
2023/05/14 02:52:02;;;;;;;11.18;6.82;;;8.40;99.90;;;;;;5042476;28;20022;-80
2023/05/14 02:54:28;;;;;;;8.68;6.18;;;8.40;99.90;;;;;;5059204;28;20032;-83
2023/05/14 02:56:53;;;;;;;11.45;8.60;;;8.40;99.90;;;;;;5059048;28;20029;-80
2023/05/14 02:59:19;;;;;;;14.68;7.93;;;8.40;99.90;;;;;;5059483;28;20037;-80
2023/05/14 03:01:45;;;;;;;12.60;7.65;;;8.40;99.90;;;;;;5041918;28;20085;-80
2023/05/14 03:04:10;;;;;;;13.75;8.25;;;8.40;99.90;;;;;;5041782;28;20025;-82
2023/05/14 03:06:36;;;;;;;11.82;6.38;;;8.40;99.90;;;;;;5042079;28;20121;-79
2023/05/14 03:09:02;;;;;;;10.60;6.80;;;8.30;99.90;;;;;;5041636;28;20037;-82
2023/05/14 03:11:27;;;;;;;11.30;5.97;;;8.20;99.90;;;;;;5058140;28;20014;-81
2023/05/14 03:13:53;;;;;;;10.00;5.88;;;8.10;99.90;;;;;;5041718;28;20025;-81
2023/05/14 03:16:19;;;;;;;8.57;6.07;;;8.00;99.90;;;;;;5041723;28;20010;-81
2023/05/14 03:18:44;;;;;;;8.85;5.45;;;7.90;99.90;;;;;;5058892;28;20010;-82
2023/05/14 03:21:10;;;;;;;9.57;6.05;;;7.80;99.90;;;;;;5041490;28;20030;-79
2023/05/14 03:23:36;;;;;;;10.98;5.65;;;7.80;99.90;;;;;;5041881;28;20041;-82
2023/05/14 03:26:02;;;;;;;10.23;6.55;;;7.10;99.90;;;;;;5041646;28;20016;-83
2023/05/14 03:31:19;;;;;;;7.18;5.40;;;7.70;99.90;;;;;;5058378;28;20067;-80
2023/05/14 03:33:44;;;;;;;11.35;6.30;;;7.80;99.90;;;;;;5057623;28;20022;-83
2023/05/14 03:36:25;;;;;;;11.23;6.85;;;7.80;99.90;;;;;;5056292;28;20044;-81
2023/05/14 03:38:50;;;;;;;9.67;6.77;;;7.80;99.90;;;;;;5057468;28;20059;-80
2023/05/14 03:41:17;;;;;;;10.82;6.80;;;7.80;99.90;;;;;;5057237;28;20022;-79
2023/05/14 03:44:20;;;;;;;11.93;7.22;;;7.80;99.90;;;;;;5056890;28;20045;-80
2023/05/14 03:46:46;;;;;;;10.77;7.25;;;7.80;99.90;;;;;;5057618;28;20097;-82
2023/05/14 03:49:32;;;;;;;10.63;6.70;;;7.80;99.90;;;;;;5057582;28;20043;-82
2023/05/14 03:51:58;;;;;;;9.40;6.43;;;7.70;99.90;;;;;;5057267;28;20033;-80
2023/05/14 03:54:24;;;;;;;8.25;5.70;;;7.70;99.90;;;;;;5057345;28;20045;-81
2023/05/14 03:57:13;;;;;;;11.13;6.93;;;7.60;99.90;;;;;;5046947;28;20109;-82
2023/05/14 03:59:39;;;;;;;10.27;6.80;;;7.60;99.90;;;;;;5056808;28;20010;-81
2023/05/14 04:02:35;;;;;;;9.63;6.88;;;7.70;99.90;;;;;;5057923;28;20348;-83
2023/05/14 04:05:35;;;;;;;9.07;5.35;;;7.70;99.90;;;;;;5056308;28;20104;-81
2023/05/14 04:08:02;;;;;;;8.50;5.55;;;;;;;;;;5057099;28;20064;-80
2023/05/14 04:10:51;;;;;;;15.65;6.90;;;7.80;99.90;;;;;;5056758;28;20009;-80
2023/05/14 04:13:17;;;;;;;12.48;6.95;;;;;;;;;;5053116;28;20021;-79
2023/05/14 04:15:46;;;;;;;10.90;6.20;;;;;;;;;;5056943;28;20018;-79
2023/05/14 04:18:16;;;;;;;13.40;8.00;;;;;;;;;;5056287;28;20038;-80
2023/05/14 04:20:53;;;;;;;9.93;6.75;;;8.00;99.90;;;;;;5056264;28;20013;-84
2023/05/14 04:23:43;;;;;;;13.48;7.22;;;;;;;;;;5058425;28;20030;-80
2023/05/14 04:26:44;;;;;;;13.23;7.45;;;8.20;99.90;;;;;;5061568;28;20013;-81
2023/05/14 04:29:36;;;;;;;12.75;7.13;;;8.40;99.90;;;;;;5060635;28;20037;-80
2023/05/14 04:32:02;;;;;;;10.98;6.13;;;;;;;;;;5060322;28;20079;-81
2023/05/14 04:34:46;;;;;;;11.30;6.93;;;8.40;99.90;;;;;;5061059;28;20029;-80
2023/05/14 04:37:28;;;;;;;9.23;6.88;;;8.50;99.90;;;;;;5060405;28;20028;-82
2023/05/14 04:39:56;;;;;;;12.32;7.53;;;8.50;99.90;;;;;;5060007;28;20025;-80
2023/05/14 04:42:31;;;;;;;11.70;7.28;;;;;;;;;;5060125;28;20021;-80
2023/05/14 04:45:21;;;;;;;10.63;6.60;;;8.80;99.90;;;;;;5060894;28;20017;-80
2023/05/14 04:48:33;;;;;;;12.32;7.55;;;9.00;99.90;;;;;;5061268;28;20005;-80
2023/05/14 04:50:59;;;;;;;11.77;6.30;;;;;;;;;;5059317;28;20048;-83
2023/05/14 04:53:57;;;;;;;13.25;6.82;;;9.00;99.90;;;;;;5060020;28;20032;-82
2023/05/14 04:56:43;;;;;;;13.55;8.20;;;9.00;99.90;;;;;;5055508;28;20049;-81
2023/05/14 05:02:17;;;;;;;10.98;7.00;;;;;;;;;;5059982;28;20048;-78
2023/05/14 05:05:03;;;;;;;12.15;7.55;;;9.40;99.90;;;;;;5058753;28;20042;-81
2023/05/14 05:08:07;;;;;;;14.68;8.75;;;9.50;99.90;;;;;;5058683;28;20030;-81
2023/05/14 05:10:41;;;;;;;13.82;7.25;;;9.50;99.90;;;;;;5056329;28;20014;-81
2023/05/14 05:13:33;;;;;;;16.38;8.70;;;9.50;99.90;;;;;;5059282;28;20009;-80
2023/05/14 05:16:12;;;;;;;9.48;6.10;;;;;;;;;;5059167;28;20014;-81
2023/05/14 05:19:20;;;;;;;15.63;7.70;;;9.70;99.90;;;;;;5059830;28;20033;-80
2023/05/14 05:21:46;;;;;;;12.10;7.78;;;9.70;99.90;;;;;;5054525;28;20018;-80
2023/05/14 05:24:12;;;;;;;16.67;8.02;;;;;;;;;;5053277;23;20038;-80
2023/05/14 05:26:38;;;;;;;10.05;6.88;;;9.90;99.90;;;;;;5040399;28;20026;-80
2023/05/14 05:29:41;;;;;;;12.93;7.28;;;9.90;99.90;;;;;;5023618;28;20057;-80
2023/05/14 05:32:16;;;;;;;11.25;7.65;;;10.00;99.90;;;;;;5018402;28;20045;-82
2023/05/14 05:34:42;;;;;;;11.65;6.18;;;10.10;99.90;;;;;;5023112;28;20026;-80
2023/05/14 05:37:11;;;;;;;11.98;7.78;;;10.10;99.90;;;;;;5040411;28;20053;-80
2023/05/14 05:39:37;;;;;;;10.23;6.18;;;10.20;99.90;;;;;;5023406;28;20006;-80
2023/05/14 05:42:04;;;;;;;7.55;5.70;;;10.30;99.90;;;;;;5023115;28;20034;-79
2023/05/14 05:44:30;;;;;;;7.85;5.60;;;10.30;99.90;;;;;;5023098;28;20021;-81
2023/05/14 05:46:56;;;;;;;7.95;5.28;;;10.40;99.90;;;;;;5023217;28;20012;-81
2023/05/14 05:49:22;;;;;;;8.90;5.47;;;10.50;99.90;;;;;;5040126;28;20030;-80
2023/05/14 05:51:47;;;;;;;7.78;5.15;;;10.70;99.90;;;;;;5023496;28;20014;-80
2023/05/14 05:54:13;;;;;;;8.43;6.20;;;10.90;99.90;;;;;;5039292;28;20073;-80
2023/05/14 05:56:39;;;;;;;7.95;5.78;;;11.00;99.90;;;;;;5039796;28;20034;-80
2023/05/14 05:59:05;;;;;;;9.23;6.03;;;11.10;99.90;;;;;;5023081;28;20053;-80
2023/05/14 06:01:31;;;;;;;8.13;5.13;;;;;;;;;;5021981;28;20029;-79
2023/05/14 06:06:32;;;;;;;7.45;4.95;;;;;;;;;;5056772;23;20040;-80
2023/05/14 06:11:34;;;;;;;7.13;5.22;;;;;;;;;;5093040;22;20038;-81
2023/05/14 06:14:00;;;;;;;9.10;5.10;;;;;;;;;;5023217;28;20265;-80
2023/05/14 06:16:57;;;;;;;6.43;4.60;;;11.50;99.90;;;;;;5022355;28;20030;-80
2023/05/14 06:20:16;;;;;;;6.97;4.57;;;11.50;99.90;;;;;;5022092;28;20018;-80
2023/05/14 06:23:14;;;;;;;5.10;4.60;;;;;;;;;;5032702;28;20038;-82
2023/05/14 06:26:18;;;;;;;7.10;4.93;;;11.90;99.90;;;;;;4999856;28;20050;-81
2023/05/14 06:29:04;;;;;;;6.38;4.28;;;12.10;99.90;;;;;;5014646;28;20022;-82
2023/05/14 06:31:30;;;;;;;8.77;5.05;;;;;;;;;;5022729;28;20121;-82
2023/05/14 06:33:59;;;;;;;5.97;4.57;;;12.20;99.90;;;;;;5022997;28;20026;-80
2023/05/14 06:37:12;;;;;;;5.68;4.50;;;12.50;99.90;;;;;;5040010;28;20052;-81
2023/05/14 06:39:39;;;;;;;6.60;4.47;;;12.50;99.90;;;;;;5022865;28;20077;-78
2023/05/14 06:42:26;;;;;;;5.20;4.20;;;12.70;99.90;;;;;;5023075;28;20021;-83
2023/05/14 06:45:07;;;;;;;5.70;5.00;;;13.00;99.90;;;;;;5039316;28;20073;-80
2023/05/14 06:47:33;;;;;;;5.10;3.70;;;12.90;99.90;;;;;;5022117;28;20014;-82
2023/05/14 06:50:00;;;;;;;7.22;4.88;;;;;;;;;;5021339;28;20037;-82
2023/05/14 06:52:26;;;;;;;4.97;3.75;;;;;;;;;;5037172;28;20061;-81
2023/05/14 06:54:52;;;;;;;8.18;4.38;;;13.60;99.90;;;;;;5022559;28;20046;-80
2023/05/14 06:57:18;;;;;;;6.25;4.25;;;13.70;99.90;;;;;;5022259;28;20045;-80
2023/05/14 06:59:43;;;;;;;5.88;4.05;;;13.60;99.90;;;;;;5022861;28;20020;-80
2023/05/14 07:02:09;;;;;;;7.10;4.90;;;13.60;99.90;;;;;;5022576;28;20021;-82
2023/05/14 07:04:35;;;;;;;6.43;3.40;;;13.60;99.90;;;;;;5021844;28;20103;-83
2023/05/14 07:07:00;;;;;;;4.05;3.38;;;13.50;99.90;;;;;;5019403;28;20076;-80
2023/05/14 07:09:26;;;;;;;5.40;4.28;;;13.60;99.90;;;;;;5039796;28;20021;-83
2023/05/14 07:11:52;;;;;;;4.25;3.88;;;13.70;99.90;;;;;;5038709;28;20049;-82
2023/05/14 07:14:17;;;;;;;5.53;3.97;;;13.80;99.90;;;;;;5020444;28;20082;-81
2023/05/14 07:16:45;;;;;;;6.93;3.72;;;;;;;;;;5021789;28;20090;-82
2023/05/14 07:19:11;;;;;;;4.55;4.03;;;14.50;99.90;;;;;;5021269;28;20026;-78
2023/05/14 07:21:37;;;;;;;5.22;4.20;;;;;;;;;;5021722;28;20010;-81
2023/05/14 07:24:03;;;;;;;5.32;3.97;;;14.30;99.90;;;;;;5021839;28;20053;-82
2023/05/14 07:26:29;;;;;;;6.63;4.40;;;14.30;99.90;;;;;;5019412;28;20025;-79
2023/05/14 07:28:54;;;;;;;8.27;4.53;;;14.40;99.90;;;;;;5038845;28;20045;-81
2023/05/14 07:31:25;;;;;;;5.97;4.68;;;14.30;99.90;;;;;;5014914;28;20032;-80
2023/05/14 07:34:15;;;;;;;5.43;4.00;;;14.00;99.90;;;;;;5020876;28;20018;-80
2023/05/14 07:36:43;;;;;;;7.15;4.70;;;14.10;99.90;;;;;;5037382;28;20251;-79
2023/05/14 07:39:08;;;;;;;5.25;4.05;;;13.90;99.90;;;;;;5019601;28;20129;-79
2023/05/14 07:41:34;;;;;;;6.68;4.40;;;14.10;99.90;;;;;;5020460;28;20022;-79
2023/05/14 07:43:59;;;;;;;5.53;4.38;;;14.20;99.90;;;;;;5020152;28;20022;-80
2023/05/14 07:46:25;;;;;;;7.88;4.65;;;14.40;99.90;;;;;;5036807;28;20029;-79
2023/05/14 07:48:51;;;;;;;5.47;4.00;;;14.40;99.90;;;;;;5012901;28;20064;-80
2023/05/14 07:51:16;;;;;;;5.65;4.28;;;14.60;99.90;;;;;;5029226;28;20513;-81
2023/05/14 07:53:47;;;;;;;5.38;4.68;;;14.70;99.90;;;;;;5013421;28;20026;-79
2023/05/14 07:56:21;;;;;;;5.70;4.07;;;14.90;99.90;;;;;;5035246;28;20034;-80
2023/05/14 07:58:47;;;;;;;5.18;4.10;;;15.00;99.90;;;;;;5016585;28;20053;-80
2023/05/14 08:01:13;;;;;;;4.65;4.05;;;14.80;99.90;;;;;;5018422;28;20006;-80
2023/05/14 08:03:38;;;;;;;5.82;3.88;;;14.50;99.90;;;;;;5015569;28;20080;-79
2023/05/14 08:06:05;;;;;;;8.18;4.10;;;13.90;99.90;;;;;;5014077;28;20026;-80
2023/05/14 08:08:35;;;;;;;5.53;4.40;;;14.50;99.90;;;;;;5015826;28;20109;-81
2023/05/14 08:11:02;;;;;;;5.57;4.30;;;14.50;99.90;;;;;;5015944;28;20042;-80
2023/05/14 08:13:27;;;;;;;5.05;3.88;;;14.90;99.90;;;;;;5000657;28;20606;-80
2023/05/14 08:15:53;;;;;;;5.32;4.47;;;14.90;99.90;;;;;;4998345;28;20041;-81
2023/05/14 08:18:18;;;;;;;7.03;4.60;;;15.00;99.90;;;;;;4999292;28;20026;-80
2023/05/14 08:20:44;;;;;;;5.07;4.55;;;14.90;99.90;;;;;;4998414;28;20040;-79
2023/05/14 08:23:22;;;;;;;6.15;4.28;;;14.90;99.90;;;;;;5013059;28;20052;-78
2023/05/14 08:25:47;;;;;;;5.88;4.07;;;15.00;99.90;;;;;;4981689;28;20209;-78
2023/05/14 08:28:13;;;;;;;5.72;4.78;;;15.10;99.90;;;;;;4972072;28;20177;-78
2023/05/14 08:30:38;;;;;;;5.35;4.75;;;16.10;99.90;;;;;;4972276;28;20085;-78
2023/05/14 08:33:04;;;;;;;4.30;3.88;;;16.10;99.90;;;;;;4989336;28;20034;-77
2023/05/14 08:35:30;;;;;;;4.35;3.92;;;16.30;99.90;;;;;;4989403;28;20030;-78
2023/05/14 08:37:56;;;;;;;6.40;5.07;;;16.40;99.90;;;;;;4970412;28;20182;-78
2023/05/14 08:40:22;;;;;;;4.22;3.83;;;16.60;99.90;;;;;;4987650;28;20380;-79
2023/05/14 08:42:50;;;;;;;5.63;4.40;;;16.20;99.90;;;;;;4987430;28;20027;-78
2023/05/14 08:45:17;;;;;;;10.07;4.40;;;16.20;99.90;;;;;;4988933;28;20491;-78
2023/05/14 08:47:47;;;;;;;6.00;4.03;;;16.20;99.90;;;;;;4969987;28;20034;-78
2023/05/14 08:50:13;;;;;;;4.93;4.30;;;16.30;99.90;;;;;;4971560;28;20522;-78
2023/05/14 08:52:47;;;;;;;5.00;4.47;;;16.10;99.90;;;;;;5014423;28;20346;-80
2023/05/14 08:55:19;;;;;;;5.55;4.43;;;16.00;99.90;;;;;;5010887;28;20081;-81
2023/05/14 08:57:45;;;;;;;4.97;4.13;;;15.70;99.90;;;;;;5014850;28;20437;-80
2023/05/14 09:00:12;;;;;;;4.95;4.45;;;15.70;99.90;;;;;;4998103;28;20036;-78
2023/05/14 09:02:43;;;;;;;7.93;3.97;;;15.90;99.90;;;;;;5011731;28;20030;-80
2023/05/14 09:05:09;;;;;;;3.88;3.38;;;15.80;99.90;;;;;;5011405;28;20041;-81
2023/05/14 09:07:35;;;;;;;7.45;3.72;;;15.50;99.90;;;;;;4985580;28;20605;-80
2023/05/14 09:10:04;;;;;;;4.68;3.38;;;15.50;99.90;;;;;;4985613;28;20561;-80
2023/05/14 09:12:30;;;;;;;6.35;3.60;;;15.80;99.90;;;;;;4985171;28;20081;-79
2023/05/14 09:14:56;;;;;;;4.28;3.45;;;;;;;;;;4983856;28;20030;-80
2023/05/14 09:17:26;;;;;;;4.75;3.85;;;15.60;99.90;;;;;;4999293;28;20026;-79
2023/05/14 09:19:52;;;;;;;4.47;3.95;;;16.00;99.90;;;;;;4980596;28;20270;-77
2023/05/14 09:22:18;;;;;;;5.25;4.05;;;16.30;99.90;;;;;;4975469;28;20258;-79
2023/05/14 09:24:45;;;;;;;4.82;3.90;;;16.60;99.90;;;;;;4975189;28;20483;-78
2023/05/14 09:27:20;;;;;;;4.55;4.03;;;16.80;99.90;;;;;;4992714;28;20030;-79
2023/05/14 09:29:46;;;;;;;8.77;4.28;;;16.90;99.90;;;;;;4993432;28;20475;-78
2023/05/14 09:32:12;;;;;;;7.47;4.32;;;17.00;99.90;;;;;;4994610;28;20038;-79
2023/05/14 09:34:38;;;;;;;4.15;3.75;;;17.20;99.90;;;;;;4975600;28;20026;-79
2023/05/14 09:37:06;;;;;;;6.80;4.10;;;18.20;99.90;;;;;;4975111;28;20026;-79
2023/05/14 09:39:33;;;;;;;5.03;4.18;;;17.00;99.90;;;;;;4993085;28;20023;-78
2023/05/14 09:42:21;;;;;;;3.80;3.42;;;18.00;99.90;;;;;;4982461;28;20030;-81
2023/05/14 09:44:47;;;;;;;5.45;4.03;;;18.10;99.90;;;;;;4961696;28;20430;-78
2023/05/14 09:47:24;;;;;;;3.88;3.40;;;18.20;99.90;;;;;;4994243;28;20134;-81
2023/05/14 09:50:45;;;;;;;3.85;3.53;;;18.20;99.90;;;;;;5011034;28;20034;-82
2023/05/14 09:55:46;;;;;;;5.28;3.58;;;18.00;99.90;;;;;;4996646;28;20498;-78
2023/05/14 09:58:14;;;;;;;5.00;4.47;;;18.20;99.90;;;;;;5015288;28;20042;-82
2023/05/14 10:00:45;;;;;;;5.53;3.78;;;18.40;99.90;;;;;;5015112;28;20026;-80
2023/05/14 10:03:13;;;;;;;4.05;3.30;;;18.70;99.70;;;;;;4992574;28;20011;-82
2023/05/14 10:05:42;;;;;;;5.67;3.30;;;19.00;99.90;;;;;;5013263;28;20027;-77
2023/05/14 10:08:18;;;;;;;3.90;3.40;;;18.40;99.60;;;;;;4993695;28;20022;-79
2023/05/14 10:10:43;;;;;;;3.47;3.17;;;18.50;97.80;;;;;;4989107;28;20065;-81
2023/05/14 10:13:14;;;;;;;3.78;3.15;;;18.20;98.20;;;;;;5013821;28;20031;-81
2023/05/14 10:16:30;;;;;;;4.32;3.83;;;18.60;95.70;;;;;;4999376;28;20022;-82
2023/05/14 10:19:04;;;;;;;6.32;3.28;;;18.60;95.90;;;;;;5010872;28;20026;-78
2023/05/14 10:21:34;;;;;;;3.40;3.17;;;18.70;96.40;;;;;;4981557;28;20067;-79
2023/05/14 10:24:00;;;;;;;4.00;3.70;;;19.00;92.80;;;;;;4980691;28;20038;-78
2023/05/14 10:26:26;;;;;;;4.18;3.63;;;18.90;92.20;;;;;;4986834;28;20169;-78
2023/05/14 10:28:53;;;;;;;5.78;3.60;;;18.70;94.60;;;;;;4981246;28;20026;-80
2023/05/14 10:31:22;;;;;;;3.53;3.22;;;18.80;92.70;;;;;;4985797;28;20057;-82
2023/05/14 10:33:49;;;;;;;3.97;3.45;;;19.70;90.50;;;;;;5004828;28;20066;-81
2023/05/14 10:36:19;;;;;;;3.72;3.42;;;19.60;90.80;;;;;;5012185;28;20023;-82
2023/05/14 10:38:46;;;;;;;3.17;2.88;;;20.20;86.00;;;;;;5011760;28;20033;-78
2023/05/14 10:43:57;;;;;;;4.43;4.07;;;20.70;76.60;;;;;;5395978;22;19905;-84
2023/05/14 10:46:24;;;;;;;3.75;3.05;;;;;;;;;;5052477;28;20090;-81
2023/05/14 10:48:50;;;;;;;5.05;4.35;;;;;;;;;;5055504;28;20486;-81
2023/05/14 10:51:19;;;;;;;5.20;4.30;;;18.70;85.40;;;;;;5062666;28;20033;-79
2023/05/14 10:53:45;;;;;;;4.25;3.60;;;17.90;91.00;;;;;;5057621;28;20226;-81
2023/05/14 10:56:13;;;;;;;4.85;3.65;;;17.00;99.40;;;;;;5053159;28;20045;-78
2023/05/14 10:58:41;;;;;;;6.85;4.22;;;16.90;99.90;;;;;;5053142;28;20397;-78
2023/05/14 11:01:10;;;;;;;4.53;4.13;;;16.60;99.90;;;;;;5041382;28;20124;-78
2023/05/14 11:03:44;;;;;;;4.03;3.38;;;16.40;99.90;;;;;;5034724;28;20021;-78
2023/05/14 11:06:13;;;;;;;4.63;3.63;;;16.50;99.90;;;;;;5035426;28;20029;-78
2023/05/14 11:08:40;;;;;;;4.10;3.75;;;16.60;99.90;;;;;;5033202;28;20033;-78
2023/05/14 11:11:07;;;;;;;3.90;3.30;;;16.80;99.90;;;;;;5035253;28;20036;-78
2023/05/14 11:13:34;;;;;;;5.03;3.72;;;16.80;99.90;;;;;;5033443;28;20029;-78
2023/05/14 11:16:01;;;;;;;4.43;4.03;;;16.90;99.90;;;;;;5035979;28;20035;-78
2023/05/14 11:18:32;;;;;;;4.47;3.75;;;17.10;99.90;;;;;;5034540;28;20062;-77
2023/05/14 11:21:01;;;;;;;4.78;3.60;;;17.10;99.90;;;;;;5033423;28;20028;-77
2023/05/14 11:23:27;;;;;;;4.43;3.70;;;17.40;99.90;;;;;;5052255;28;20052;-78
2023/05/14 11:25:54;;;;;;;5.07;4.53;;;17.20;98.50;;;;;;5050603;28;20023;-78
2023/05/14 11:28:21;;;;;;;3.67;3.38;;;17.10;99.20;;;;;;5033540;28;20116;-78
2023/05/14 11:30:48;;;;;;;3.63;2.90;;;17.00;99.90;;;;;;5034737;28;20017;-78
2023/05/14 11:33:14;;;;;;;4.03;3.63;;;17.10;99.90;;;;;;5032680;28;20111;-78
2023/05/14 11:35:41;;;;;;;6.07;4.18;;;17.00;99.90;;;;;;5034093;28;20405;-78
2023/05/14 11:38:16;;;;;;;4.95;3.90;;;16.80;99.90;;;;;;5033793;28;20021;-77
2023/05/14 11:40:50;;;;;;;4.22;3.65;;;16.60;99.90;;;;;;5032477;28;20377;-77
2023/05/14 11:43:16;;;;;;;4.28;3.25;;;16.60;99.90;;;;;;5032923;28;20045;-78
2023/05/14 11:45:42;;;;;;;3.85;3.55;;;16.80;99.90;;;;;;5050419;28;20040;-78
2023/05/14 11:48:13;;;;;;;3.55;3.25;;;16.80;99.90;;;;;;5032381;28;20021;-78
2023/05/14 11:50:40;;;;;;;4.55;3.05;;;17.10;99.90;;;;;;5032981;28;20486;-78
2023/05/14 11:53:05;;;;;;;3.67;3.30;;;17.20;99.90;;;;;;5033422;28;20435;-78
2023/05/14 11:55:34;;;;;;;4.22;3.90;;;17.20;98.90;;;;;;5044868;28;20143;-78
2023/05/14 11:58:00;;;;;;;3.63;3.13;;;17.00;99.00;;;;;;5011336;28;20064;-78
2023/05/14 12:00:26;;;;;;;6.55;3.35;;;17.20;99.90;;;;;;5011494;28;20512;-77
2023/05/14 12:02:53;;;;;;;3.13;2.83;;;17.30;98.90;;;;;;5012808;28;20121;-78
2023/05/14 12:05:19;;;;;;;4.47;3.13;;;17.80;99.90;;;;;;5030468;28;20056;-78
2023/05/14 12:07:45;;;;;;;3.30;3.00;;;18.20;96.20;;;;;;5013277;28;20505;-78
2023/05/14 12:10:12;;;;;;;4.80;3.55;;;18.60;92.40;;;;;;5012462;28;20050;-78
2023/05/14 12:12:38;;;;;;;2.72;2.47;;;18.80;91.20;;;;;;5012539;28;20045;-77
2023/05/14 12:15:14;;;;;;;3.78;3.40;;;18.80;91.90;;;;;;5012828;28;20420;-78
2023/05/14 12:17:40;;;;;;;3.22;2.70;;;18.80;90.20;;;;;;5028351;28;20033;-77
2023/05/14 12:20:10;;;;;;;6.18;3.42;;;18.80;88.50;;;;;;5014434;28;20041;-78
2023/05/14 12:22:36;;;;;;;2.97;2.72;;;18.90;86.80;;;;;;5030745;28;20064;-78
2023/05/14 12:25:02;;;;;;;3.38;3.05;;;19.00;87.30;;;;;;5051182;28;20048;-78
2023/05/14 12:27:29;;;;;;;2.38;2.17;;;19.30;90.30;;;;;;5034621;28;20489;-78
2023/05/14 12:30:04;;;;;;;3.30;3.00;;;19.30;84.00;;;;;;5045271;28;20043;-82
2023/05/14 12:32:34;;;;;;;2.42;2.22;;;19.20;82.10;;;;;;5040581;28;20029;-81
2023/05/14 12:35:00;;;;;;;3.03;2.83;;;19.40;81.20;;;;;;5032591;28;20119;-82
2023/05/14 12:37:26;;;;;;;3.20;2.72;;;19.30;82.30;;;;;;5038204;28;20022;-79
2023/05/14 12:39:52;;;;;;;2.72;2.53;;;19.30;80.90;;;;;;5031340;28;20021;-80
2023/05/14 12:42:18;;;;;;;2.80;2.45;;;19.90;76.50;;;;;;5034402;28;20036;-78
2023/05/14 12:44:44;;;;;;;3.15;2.30;;;19.90;77.10;;;;;;5034149;28;20044;-80
2023/05/14 12:47:10;;;;;;;2.55;1.90;;;;;;;;;;5035320;28;20508;-80
2023/05/14 12:49:36;;;;;;;2.80;2.40;;;;;;;;;;5053435;28;20029;-79
2023/05/14 12:52:02;;;;;;;3.00;2.47;;;21.30;70.40;;;;;;5053632;28;20333;-79
2023/05/14 12:54:27;;;;;;;2.40;2.20;;;21.40;71.00;;;;;;5040374;28;20041;-81
2023/05/14 12:56:53;;;;;;;2.63;1.90;;;21.80;74.40;;;;;;5032339;28;20051;-80
2023/05/14 12:59:19;;;;;;;2.47;2.22;;;21.80;65.60;;;;;;5037437;28;20226;-81
2023/05/14 13:01:45;;;;;;;2.70;2.50;;;;;;;;;;5058049;28;20021;-81
2023/05/14 13:04:13;;;;;;;2.70;1.75;;;23.40;63.10;;;;;;5036946;28;20079;-81
2023/05/14 13:06:39;;;;;;;2.40;1.87;;;24.10;63.70;;;;;;5036898;28;20317;-79
2023/05/14 13:09:06;;;;;;;2.97;2.75;;;24.60;59.90;;;;;;5054317;28;20021;-79
2023/05/14 13:11:32;;;;;;;2.47;1.83;;;26.30;56.40;;;;;;5037844;28;20048;-77
2023/05/14 13:13:59;;;;;;;2.53;2.33;;;26.40;53.80;;;;;;5026267;28;20443;-78
2023/05/14 13:16:26;;;;;;;2.10;2.00;;;26.10;54.30;;;;;;5021196;28;20063;-76
2023/05/14 13:18:51;;;;;;;2.08;1.73;;;25.70;56.90;;;;;;5022932;28;20017;-76
2023/05/14 13:21:17;;;;;;;2.85;2.58;;;25.20;58.00;;;;;;5020080;28;20048;-77
2023/05/14 13:23:42;;;;;;;1.95;1.85;;;24.60;56.50;;;;;;5016043;28;20029;-79
2023/05/14 13:26:08;;;;;;;2.22;2.08;;;;;;;;;;5015405;28;20456;-78
2023/05/14 13:28:34;;;;;;;4.40;2.00;;;24.30;56.80;;;;;;5032278;28;20546;-78
2023/05/14 13:31:18;;;;;;;2.17;1.98;;;23.10;61.80;;;;;;5015899;28;20054;-78
2023/05/14 13:33:44;;;;;;;2.58;2.38;;;22.20;60.90;;;;;;5035674;28;20033;-78
2023/05/14 13:36:12;;;;;;;3.38;2.17;;;21.10;63.60;;;;;;5032341;28;20040;-78
2023/05/14 13:38:38;;;;;;;1.97;1.73;;;21.20;63.10;;;;;;5013860;28;20026;-78
2023/05/14 13:41:04;;;;;;;2.80;2.22;;;21.60;63.70;;;;;;5031934;28;20092;-78
2023/05/14 13:43:34;;;;;;;2.05;1.90;;;21.30;60.70;;;;;;5010029;28;20053;-79
2023/05/14 13:46:01;;;;;;;2.20;1.83;;;22.40;63.10;;;;;;5010204;28;20033;-78
2023/05/14 13:48:26;;;;;;;4.63;2.17;;;24.00;58.90;;;;;;5011745;28;20018;-78
2023/05/14 13:50:52;;;;;;;2.05;1.85;;;23.80;54.90;;;;;;5021739;28;20029;-78
2023/05/14 13:53:20;;;;;;;3.95;1.75;;;24.00;57.20;;;;;;5030509;28;20026;-78
2023/05/14 13:55:45;;;;;;;1.77;1.60;;;24.80;57.40;;;;;;5029317;28;20036;-78
2023/05/14 13:58:11;;;;;;;1.65;1.40;;;;;;;;;;5014935;28;20033;-78
2023/05/14 14:00:37;;;;;;;1.27;1.27;;;23.90;54.80;;;;;;5033754;28;20049;-79